sensor_id;sensor_type;location;lat;lon;timestamp;temperature;humidity
82670;DHT22;72377;48.542;-3.202;2023-08-21T07:31:34;19.10;74.50
82670;DHT22;72377;48.542;-3.202;2023-08-21T07:34:00;18.70;75.10
82670;DHT22;72377;48.542;-3.202;2023-08-21T07:36:25;18.80;74.90
82670;DHT22;72377;48.542;-3.202;2023-08-21T07:38:51;18.90;74.90
82670;DHT22;72377;48.542;-3.202;2023-08-21T07:41:17;18.90;74.80
82670;DHT22;72377;48.542;-3.202;2023-08-21T07:43:43;18.80;75.10
82670;DHT22;72377;48.542;-3.202;2023-08-21T07:46:11;18.80;75.60
82670;DHT22;72377;48.542;-3.202;2023-08-21T07:48:46;18.80;75.80
82670;DHT22;72377;48.542;-3.202;2023-08-21T07:51:12;18.90;75.40
82670;DHT22;72377;48.542;-3.202;2023-08-21T07:53:38;19.00;75.50
82670;DHT22;72377;48.542;-3.202;2023-08-21T07:56:04;19.00;75.30
82670;DHT22;72377;48.542;-3.202;2023-08-21T07:58:30;19.00;75.30
82670;DHT22;72377;48.542;-3.202;2023-08-21T08:00:56;19.10;75.50
82670;DHT22;72377;48.542;-3.202;2023-08-21T08:03:22;19.20;75.40
82670;DHT22;72377;48.542;-3.202;2023-08-21T08:05:47;19.20;75.60
82670;DHT22;72377;48.542;-3.202;2023-08-21T08:08:13;19.20;75.40
82670;DHT22;72377;48.542;-3.202;2023-08-21T08:10:39;19.20;75.10
82670;DHT22;72377;48.542;-3.202;2023-08-21T08:13:06;19.30;75.40
82670;DHT22;72377;48.542;-3.202;2023-08-21T08:15:32;19.30;74.90
82670;DHT22;72377;48.542;-3.202;2023-08-21T08:17:59;19.40;75.00
82670;DHT22;72377;48.542;-3.202;2023-08-21T08:20:25;19.40;75.20
82670;DHT22;72377;48.542;-3.202;2023-08-21T08:22:50;19.40;75.30
82670;DHT22;72377;48.542;-3.202;2023-08-21T08:25:16;19.40;75.40
82670;DHT22;72377;48.542;-3.202;2023-08-21T08:27:43;19.30;75.70
82670;DHT22;72377;48.542;-3.202;2023-08-21T08:30:09;19.40;75.50
82670;DHT22;72377;48.542;-3.202;2023-08-21T08:32:35;19.40;75.20
82670;DHT22;72377;48.542;-3.202;2023-08-21T08:35:01;19.50;75.10
82670;DHT22;72377;48.542;-3.202;2023-08-21T08:37:26;19.50;75.30
82670;DHT22;72377;48.542;-3.202;2023-08-21T08:39:52;19.50;75.20
82670;DHT22;72377;48.542;-3.202;2023-08-21T08:42:18;19.50;75.60
82670;DHT22;72377;48.542;-3.202;2023-08-21T08:44:43;19.50;75.60
82670;DHT22;72377;48.542;-3.202;2023-08-21T08:47:10;19.50;75.40
82670;DHT22;72377;48.542;-3.202;2023-08-21T08:49:37;19.60;75.40
82670;DHT22;72377;48.542;-3.202;2023-08-21T08:52:04;19.60;75.60
82670;DHT22;72377;48.542;-3.202;2023-08-21T08:54:30;19.70;75.20
82670;DHT22;72377;48.542;-3.202;2023-08-21T08:56:56;19.70;74.90
82670;DHT22;72377;48.542;-3.202;2023-08-21T08:59:22;19.80;74.70
82670;DHT22;72377;48.542;-3.202;2023-08-21T09:01:48;19.80;74.50
82670;DHT22;72377;48.542;-3.202;2023-08-21T09:04:14;19.80;74.60
82670;DHT22;72377;48.542;-3.202;2023-08-21T09:06:40;19.80;74.70
82670;DHT22;72377;48.542;-3.202;2023-08-21T09:09:07;19.80;74.80
82670;DHT22;72377;48.542;-3.202;2023-08-21T09:11:33;19.80;75.60
82670;DHT22;72377;48.542;-3.202;2023-08-21T09:13:59;19.80;76.30
82670;DHT22;72377;48.542;-3.202;2023-08-21T09:16:25;19.80;76.50
82670;DHT22;72377;48.542;-3.202;2023-08-21T09:18:55;19.80;76.90
82670;DHT22;72377;48.542;-3.202;2023-08-21T09:21:25;19.80;77.60
82670;DHT22;72377;48.542;-3.202;2023-08-21T09:24:00;19.90;77.50
82670;DHT22;72377;48.542;-3.202;2023-08-21T09:26:26;19.90;76.40
82670;DHT22;72377;48.542;-3.202;2023-08-21T09:28:53;19.90;76.30
82670;DHT22;72377;48.542;-3.202;2023-08-21T09:31:23;19.80;76.50
82670;DHT22;72377;48.542;-3.202;2023-08-21T09:34:15;19.80;77.00
82670;DHT22;72377;48.542;-3.202;2023-08-21T09:36:41;19.80;77.10
82670;DHT22;72377;48.542;-3.202;2023-08-21T09:39:14;19.80;76.70
82670;DHT22;72377;48.542;-3.202;2023-08-21T09:41:40;19.80;77.60
82670;DHT22;72377;48.542;-3.202;2023-08-21T09:44:06;19.90;76.80
82670;DHT22;72377;48.542;-3.202;2023-08-21T09:46:31;19.90;76.30
82670;DHT22;72377;48.542;-3.202;2023-08-21T09:48:57;19.90;76.00
82670;DHT22;72377;48.542;-3.202;2023-08-21T09:51:23;19.90;76.90
82670;DHT22;72377;48.542;-3.202;2023-08-21T09:53:51;19.90;76.40
82670;DHT22;72377;48.542;-3.202;2023-08-21T09:56:19;19.90;76.70
82670;DHT22;72377;48.542;-3.202;2023-08-21T09:58:47;20.00;76.60
82670;DHT22;72377;48.542;-3.202;2023-08-21T10:01:14;20.00;76.00
82670;DHT22;72377;48.542;-3.202;2023-08-21T10:03:42;20.00;76.20
82670;DHT22;72377;48.542;-3.202;2023-08-21T10:06:10;20.10;76.60
82670;DHT22;72377;48.542;-3.202;2023-08-21T10:08:38;20.10;75.60
82670;DHT22;72377;48.542;-3.202;2023-08-21T10:11:07;20.10;76.40
82670;DHT22;72377;48.542;-3.202;2023-08-21T10:13:35;20.10;76.90
82670;DHT22;72377;48.542;-3.202;2023-08-21T10:16:01;20.20;76.70
82670;DHT22;72377;48.542;-3.202;2023-08-21T10:18:34;20.20;76.80
82670;DHT22;72377;48.542;-3.202;2023-08-21T10:21:16;20.20;77.10
82670;DHT22;72377;48.542;-3.202;2023-08-21T10:23:49;20.20;75.00
82670;DHT22;72377;48.542;-3.202;2023-08-21T10:26:20;20.20;76.60
82670;DHT22;72377;48.542;-3.202;2023-08-21T10:28:59;20.30;75.80
82670;DHT22;72377;48.542;-3.202;2023-08-21T10:34:35;20.30;75.50
82670;DHT22;72377;48.542;-3.202;2023-08-21T10:37:10;20.30;76.20
82670;DHT22;72377;48.542;-3.202;2023-08-21T10:39:38;20.30;75.60
82670;DHT22;72377;48.542;-3.202;2023-08-21T10:42:10;20.30;75.80
82670;DHT22;72377;48.542;-3.202;2023-08-21T10:50:01;20.50;75.20
82670;DHT22;72377;48.542;-3.202;2023-08-21T10:55:00;20.50;75.80
82670;DHT22;72377;48.542;-3.202;2023-08-21T10:57:28;20.50;75.10
82670;DHT22;72377;48.542;-3.202;2023-08-21T11:02:27;20.60;75.20
82670;DHT22;72377;48.542;-3.202;2023-08-21T11:04:54;20.60;75.00
82670;DHT22;72377;48.542;-3.202;2023-08-21T11:07:20;20.60;74.90
82670;DHT22;72377;48.542;-3.202;2023-08-21T11:09:47;20.60;75.10
82670;DHT22;72377;48.542;-3.202;2023-08-21T11:12:16;20.70;74.00
82670;DHT22;72377;48.542;-3.202;2023-08-21T11:14:43;20.70;74.40
82670;DHT22;72377;48.542;-3.202;2023-08-21T11:17:10;20.70;74.50
82670;DHT22;72377;48.542;-3.202;2023-08-21T11:19:37;20.80;74.40
82670;DHT22;72377;48.542;-3.202;2023-08-21T11:22:03;20.80;74.40
82670;DHT22;72377;48.542;-3.202;2023-08-21T11:24:45;20.90;74.90
82670;DHT22;72377;48.542;-3.202;2023-08-21T11:27:13;21.00;73.60
82670;DHT22;72377;48.542;-3.202;2023-08-21T11:29:41;21.00;73.80
82670;DHT22;72377;48.542;-3.202;2023-08-21T11:32:17;21.00;74.00
82670;DHT22;72377;48.542;-3.202;2023-08-21T11:34:54;21.10;73.60
82670;DHT22;72377;48.542;-3.202;2023-08-21T11:37:21;21.10;73.50
82670;DHT22;72377;48.542;-3.202;2023-08-21T11:39:49;21.20;72.80
82670;DHT22;72377;48.542;-3.202;2023-08-21T11:42:15;21.30;72.70
82670;DHT22;72377;48.542;-3.202;2023-08-21T11:44:46;21.40;71.50
82670;DHT22;72377;48.542;-3.202;2023-08-21T11:47:12;21.50;70.60
82670;DHT22;72377;48.542;-3.202;2023-08-21T11:49:40;21.60;70.20
82670;DHT22;72377;48.542;-3.202;2023-08-21T11:52:10;21.50;70.70
82670;DHT22;72377;48.542;-3.202;2023-08-21T11:54:39;21.50;70.80
82670;DHT22;72377;48.542;-3.202;2023-08-21T11:57:12;21.50;71.50
82670;DHT22;72377;48.542;-3.202;2023-08-21T11:59:39;21.50;71.60
82670;DHT22;72377;48.542;-3.202;2023-08-21T12:02:16;21.60;71.20
82670;DHT22;72377;48.542;-3.202;2023-08-21T12:04:42;21.60;70.80
82670;DHT22;72377;48.542;-3.202;2023-08-21T12:07:08;21.60;71.00
82670;DHT22;72377;48.542;-3.202;2023-08-21T12:09:34;21.60;71.20
82670;DHT22;72377;48.542;-3.202;2023-08-21T12:12:00;21.60;71.10
82670;DHT22;72377;48.542;-3.202;2023-08-21T12:14:27;21.60;70.20
82670;DHT22;72377;48.542;-3.202;2023-08-21T12:16:53;21.80;69.50
82670;DHT22;72377;48.542;-3.202;2023-08-21T12:19:21;21.80;70.00
82670;DHT22;72377;48.542;-3.202;2023-08-21T12:21:47;21.80;70.10
82670;DHT22;72377;48.542;-3.202;2023-08-21T12:24:13;21.80;68.30
82670;DHT22;72377;48.542;-3.202;2023-08-21T12:26:38;21.80;67.70
82670;DHT22;72377;48.542;-3.202;2023-08-21T12:29:04;21.90;67.50
82670;DHT22;72377;48.542;-3.202;2023-08-21T12:31:30;21.90;64.70
82670;DHT22;72377;48.542;-3.202;2023-08-21T12:33:56;22.00;66.30
82670;DHT22;72377;48.542;-3.202;2023-08-21T12:36:22;21.90;67.70
82670;DHT22;72377;48.542;-3.202;2023-08-21T12:38:47;21.90;67.20
82670;DHT22;72377;48.542;-3.202;2023-08-21T12:41:13;21.90;66.80
82670;DHT22;72377;48.542;-3.202;2023-08-21T12:43:39;22.00;67.20
82670;DHT22;72377;48.542;-3.202;2023-08-21T12:46:05;21.90;66.80
82670;DHT22;72377;48.542;-3.202;2023-08-21T12:48:31;21.90;66.90
82670;DHT22;72377;48.542;-3.202;2023-08-21T12:50:56;22.00;67.60
82670;DHT22;72377;48.542;-3.202;2023-08-21T12:53:22;22.00;67.90
82670;DHT22;72377;48.542;-3.202;2023-08-21T12:55:48;22.00;67.40
82670;DHT22;72377;48.542;-3.202;2023-08-21T12:58:14;22.00;68.00
82670;DHT22;72377;48.542;-3.202;2023-08-21T13:00:40;22.00;68.00
82670;DHT22;72377;48.542;-3.202;2023-08-21T13:03:05;22.00;67.70
82670;DHT22;72377;48.542;-3.202;2023-08-21T13:05:31;22.00;67.70
82670;DHT22;72377;48.542;-3.202;2023-08-21T13:07:57;22.10;66.10
82670;DHT22;72377;48.542;-3.202;2023-08-21T13:10:23;22.10;66.70
82670;DHT22;72377;48.542;-3.202;2023-08-21T13:12:48;22.10;66.60
82670;DHT22;72377;48.542;-3.202;2023-08-21T13:15:15;22.10;66.90
82670;DHT22;72377;48.542;-3.202;2023-08-21T13:17:41;22.10;66.70
82670;DHT22;72377;48.542;-3.202;2023-08-21T13:20:08;22.10;67.40
82670;DHT22;72377;48.542;-3.202;2023-08-21T13:22:47;22.10;66.80
82670;DHT22;72377;48.542;-3.202;2023-08-21T13:25:15;22.10;66.90
82670;DHT22;72377;48.542;-3.202;2023-08-21T13:27:41;22.10;67.70
82670;DHT22;72377;48.542;-3.202;2023-08-21T13:30:07;22.10;67.50
82670;DHT22;72377;48.542;-3.202;2023-08-21T13:32:33;22.10;66.10
82670;DHT22;72377;48.542;-3.202;2023-08-21T13:34:59;22.10;66.40
82670;DHT22;72377;48.542;-3.202;2023-08-21T13:37:25;22.10;67.00
82670;DHT22;72377;48.542;-3.202;2023-08-21T13:39:52;22.20;67.30
82670;DHT22;72377;48.542;-3.202;2023-08-21T13:42:17;22.30;62.50
82670;DHT22;72377;48.542;-3.202;2023-08-21T13:44:43;22.40;63.10
82670;DHT22;72377;48.542;-3.202;2023-08-21T13:47:10;22.40;65.00
82670;DHT22;72377;48.542;-3.202;2023-08-21T13:49:37;22.40;64.70
82670;DHT22;72377;48.542;-3.202;2023-08-21T13:52:02;22.40;65.70
82670;DHT22;72377;48.542;-3.202;2023-08-21T13:54:28;22.40;63.30
82670;DHT22;72377;48.542;-3.202;2023-08-21T13:56:54;22.40;63.80
82670;DHT22;72377;48.542;-3.202;2023-08-21T13:59:20;22.50;63.60
82670;DHT22;72377;48.542;-3.202;2023-08-21T14:01:46;22.50;63.50
82670;DHT22;72377;48.542;-3.202;2023-08-21T14:04:11;22.40;65.90
82670;DHT22;72377;48.542;-3.202;2023-08-21T14:06:37;22.40;66.00
82670;DHT22;72377;48.542;-3.202;2023-08-21T14:09:03;22.40;66.30
82670;DHT22;72377;48.542;-3.202;2023-08-21T14:11:28;22.40;66.30
82670;DHT22;72377;48.542;-3.202;2023-08-21T14:13:54;22.40;66.20
82670;DHT22;72377;48.542;-3.202;2023-08-21T14:16:19;22.40;65.40
82670;DHT22;72377;48.542;-3.202;2023-08-21T14:18:45;22.40;65.70
82670;DHT22;72377;48.542;-3.202;2023-08-21T14:21:11;22.40;66.00
82670;DHT22;72377;48.542;-3.202;2023-08-21T14:23:36;22.40;65.50
82670;DHT22;72377;48.542;-3.202;2023-08-21T14:26:04;22.40;65.20
82670;DHT22;72377;48.542;-3.202;2023-08-21T14:28:30;22.40;66.10
82670;DHT22;72377;48.542;-3.202;2023-08-21T14:30:55;22.50;64.70
82670;DHT22;72377;48.542;-3.202;2023-08-21T14:33:21;22.40;64.30
82670;DHT22;72377;48.542;-3.202;2023-08-21T14:35:47;22.50;62.80
82670;DHT22;72377;48.542;-3.202;2023-08-21T14:38:13;22.50;65.10
82670;DHT22;72377;48.542;-3.202;2023-08-21T14:40:38;22.50;64.60
82670;DHT22;72377;48.542;-3.202;2023-08-21T14:43:04;22.50;66.20
82670;DHT22;72377;48.542;-3.202;2023-08-21T14:45:29;22.60;67.90
82670;DHT22;72377;48.542;-3.202;2023-08-21T14:47:55;22.70;68.50
82670;DHT22;72377;48.542;-3.202;2023-08-21T14:50:21;22.80;68.50
82670;DHT22;72377;48.542;-3.202;2023-08-21T14:52:46;22.80;68.50
82670;DHT22;72377;48.542;-3.202;2023-08-21T14:55:13;22.80;69.00
82670;DHT22;72377;48.542;-3.202;2023-08-21T14:57:39;22.90;69.00
82670;DHT22;72377;48.542;-3.202;2023-08-21T15:00:05;22.90;69.20
82670;DHT22;72377;48.542;-3.202;2023-08-21T15:02:31;22.90;68.90
82670;DHT22;72377;48.542;-3.202;2023-08-21T15:04:56;22.90;69.20
82670;DHT22;72377;48.542;-3.202;2023-08-21T15:07:22;22.90;68.90
82670;DHT22;72377;48.542;-3.202;2023-08-21T15:09:48;22.80;68.60
82670;DHT22;72377;48.542;-3.202;2023-08-21T15:12:14;22.80;68.40
82670;DHT22;72377;48.542;-3.202;2023-08-21T15:14:40;22.80;68.50
82670;DHT22;72377;48.542;-3.202;2023-08-21T15:17:06;22.70;68.90
82670;DHT22;72377;48.542;-3.202;2023-08-21T15:19:31;22.70;69.10
82670;DHT22;72377;48.542;-3.202;2023-08-21T15:21:57;22.70;69.10
82670;DHT22;72377;48.542;-3.202;2023-08-21T15:24:23;22.70;69.30
82670;DHT22;72377;48.542;-3.202;2023-08-21T15:26:48;22.70;69.30
82670;DHT22;72377;48.542;-3.202;2023-08-21T15:29:14;22.70;69.50
82670;DHT22;72377;48.542;-3.202;2023-08-21T15:31:39;22.60;69.50
82670;DHT22;72377;48.542;-3.202;2023-08-21T15:43:21;22.60;70.50
82670;DHT22;72377;48.542;-3.202;2023-08-21T15:45:46;22.60;70.40
82670;DHT22;72377;48.542;-3.202;2023-08-21T15:48:12;22.60;70.50
82670;DHT22;72377;48.542;-3.202;2023-08-21T15:50:38;22.60;70.70
82670;DHT22;72377;48.542;-3.202;2023-08-21T15:53:03;22.60;71.00
82670;DHT22;72377;48.542;-3.202;2023-08-21T15:55:29;22.70;70.80
82670;DHT22;72377;48.542;-3.202;2023-08-21T15:57:54;22.70;70.80
82670;DHT22;72377;48.542;-3.202;2023-08-21T16:00:20;22.70;71.20
82670;DHT22;72377;48.542;-3.202;2023-08-21T16:02:48;22.70;71.00
82670;DHT22;72377;48.542;-3.202;2023-08-21T16:05:15;22.70;70.90
82670;DHT22;72377;48.542;-3.202;2023-08-21T16:07:41;22.80;70.70
82670;DHT22;72377;48.542;-3.202;2023-08-21T16:10:08;22.80;70.60
82670;DHT22;72377;48.542;-3.202;2023-08-21T16:12:33;22.80;70.50
82670;DHT22;72377;48.542;-3.202;2023-08-21T16:14:59;22.80;70.40
82670;DHT22;72377;48.542;-3.202;2023-08-21T16:18:50;23.00;70.20
82670;DHT22;72377;48.542;-3.202;2023-08-21T16:21:16;22.80;70.30
82670;DHT22;72377;48.542;-3.202;2023-08-21T16:23:42;22.80;70.50
82670;DHT22;72377;48.542;-3.202;2023-08-21T16:26:07;22.80;70.20
82670;DHT22;72377;48.542;-3.202;2023-08-21T16:30:02;23.10;70.10
82670;DHT22;72377;48.542;-3.202;2023-08-21T16:32:29;22.90;69.80
82670;DHT22;72377;48.542;-3.202;2023-08-21T16:34:54;22.90;70.20
82670;DHT22;72377;48.542;-3.202;2023-08-21T16:37:20;23.00;69.90
82670;DHT22;72377;48.542;-3.202;2023-08-21T16:39:46;23.00;69.60
82670;DHT22;72377;48.542;-3.202;2023-08-21T16:42:11;23.00;69.80
82670;DHT22;72377;48.542;-3.202;2023-08-21T16:44:37;23.00;69.50
82670;DHT22;72377;48.542;-3.202;2023-08-21T16:47:03;23.00;69.50
82670;DHT22;72377;48.542;-3.202;2023-08-21T16:49:30;23.00;69.90
82670;DHT22;72377;48.542;-3.202;2023-08-21T16:51:56;23.10;69.60
82670;DHT22;72377;48.542;-3.202;2023-08-21T16:54:21;23.00;69.90
82670;DHT22;72377;48.542;-3.202;2023-08-21T16:56:47;23.00;69.60
82670;DHT22;72377;48.542;-3.202;2023-08-21T16:59:12;23.00;69.70
82670;DHT22;72377;48.542;-3.202;2023-08-21T17:01:38;23.00;69.60
82670;DHT22;72377;48.542;-3.202;2023-08-21T17:04:04;23.10;69.30
82670;DHT22;72377;48.542;-3.202;2023-08-21T17:06:29;23.10;69.40
82670;DHT22;72377;48.542;-3.202;2023-08-21T17:08:55;23.10;69.40
82670;DHT22;72377;48.542;-3.202;2023-08-21T17:11:21;23.10;69.40
82670;DHT22;72377;48.542;-3.202;2023-08-21T17:13:46;23.10;69.60
